createdAt,value
2022-08-02T00:00:14.163Z,2.53
2022-08-02T00:02:43.326Z,2.42
2022-08-02T00:05:12.239Z,1.95
2022-08-02T00:07:41.298Z,2.13
2022-08-02T00:10:12.756Z,2.83
2022-08-02T00:12:40.676Z,2.67
2022-08-02T00:15:16.229Z,2.50
2022-08-02T00:17:45.554Z,2.75
2022-08-02T00:20:14.771Z,3.30
2022-08-02T00:22:42.596Z,3.58
2022-08-02T00:25:10.958Z,2.97
2022-08-02T00:27:40.447Z,3.00
2022-08-02T00:30:11.559Z,3.13
2022-08-02T00:32:43.194Z,3.30
2022-08-02T00:35:11.079Z,3.40
2022-08-02T00:37:42.278Z,2.83
2022-08-02T00:40:11.767Z,4.47
2022-08-02T00:42:40.953Z,3.45
2022-08-02T00:45:12.082Z,3.95
2022-08-02T00:47:39.423Z,4.43
2022-08-02T00:50:07.422Z,4.05
2022-08-02T00:52:34.733Z,4.60
2022-08-02T00:55:02.130Z,4.82
2022-08-02T00:57:29.427Z,4.22
2022-08-02T00:59:56.833Z,4.72
2022-08-02T01:02:24.335Z,3.95
2022-08-02T01:04:51.615Z,4.68
2022-08-02T01:07:19.052Z,3.70
2022-08-02T01:09:46.753Z,4.10
2022-08-02T01:12:14.840Z,3.95
2022-08-02T01:14:51.837Z,3.13
2022-08-02T01:18:10.042Z,3.88
2022-08-02T01:21:14.906Z,3.40
2022-08-02T01:24:19.673Z,2.30
2022-08-02T01:27:03.538Z,3.90
2022-08-02T01:29:36.142Z,4.18
2022-08-02T01:32:24.570Z,4.50
2022-08-02T01:35:14.138Z,4.05
2022-08-02T01:38:15.088Z,3.85
2022-08-02T01:40:47.032Z,4.03
2022-08-02T01:43:17.774Z,3.80
2022-08-02T01:45:48.500Z,3.55
2022-08-02T01:48:19.052Z,4.45
2022-08-02T01:50:49.088Z,4.10
2022-08-02T01:53:21.938Z,4.63
2022-08-02T01:55:57.408Z,4.47
2022-08-02T01:58:32.773Z,4.82
2022-08-02T02:01:02.116Z,3.83
2022-08-02T02:03:33.698Z,5.40
2022-08-02T02:06:05.578Z,4.60
2022-08-02T02:08:43.864Z,5.85
2022-08-02T02:12:09.316Z,5.47
2022-08-02T02:14:04.108Z,4.68
2022-08-02T02:16:34.654Z,5.38
2022-08-02T02:19:04.382Z,5.35
2022-08-02T02:21:32.113Z,4.47
2022-08-02T02:24:03.823Z,6.10
2022-08-02T02:26:44.288Z,6.50
2022-08-02T02:29:22.507Z,5.07
2022-08-02T02:31:55.534Z,5.38
2022-08-02T02:35:23.302Z,4.90
2022-08-02T02:37:55.220Z,4.22
2022-08-02T02:40:26.698Z,4.95
2022-08-02T02:43:01.711Z,6.15
2022-08-02T02:45:32.315Z,5.18
2022-08-02T02:49:13.968Z,5.93
2022-08-02T02:51:42.456Z,4.90
2022-08-02T02:55:24.932Z,7.20
2022-08-02T02:59:07.465Z,6.43
2022-08-02T03:02:49.815Z,4.88
2022-08-02T03:06:32.196Z,6.15
2022-08-02T03:09:00.604Z,5.43
2022-08-02T03:12:43.584Z,6.72
2022-08-02T03:16:26.010Z,6.97
2022-08-02T03:20:09.054Z,6.63
2022-08-02T03:23:51.840Z,6.30
2022-08-02T03:26:22.170Z,5.88
2022-08-02T03:28:54.818Z,6.10
2022-08-02T03:31:47.944Z,6.35
2022-08-02T03:34:22.363Z,6.38
2022-08-02T03:36:56.327Z,6.93
2022-08-02T03:39:26.720Z,7.50
2022-08-02T03:41:58.254Z,6.10
2022-08-02T03:44:26.842Z,7.13
2022-08-02T03:46:55.217Z,6.63
2022-08-02T03:49:22.590Z,6.20
2022-08-02T03:51:50.640Z,6.53
2022-08-02T03:54:19.012Z,6.57
2022-08-02T03:56:47.782Z,6.63
2022-08-02T03:59:17.495Z,7.13
2022-08-02T04:01:44.792Z,7.40
2022-08-02T04:04:12.110Z,6.70
2022-08-02T04:06:40.005Z,6.30
2022-08-02T04:09:09.845Z,7.28
2022-08-02T04:11:39.736Z,7.90
2022-08-02T04:14:11.284Z,7.28
2022-08-02T04:16:48.680Z,5.90
2022-08-02T04:19:27.111Z,6.97
2022-08-02T04:21:58.344Z,9.20
2022-08-02T04:24:44.885Z,6.28
2022-08-02T04:27:48.786Z,6.68
2022-08-02T04:30:07.187Z,6.55
2022-08-02T04:32:39.825Z,6.30
2022-08-02T04:35:24.752Z,7.63
2022-08-02T04:38:08.838Z,8.05
2022-08-02T04:40:38.769Z,7.07
2022-08-02T04:43:06.987Z,8.07
2022-08-02T04:45:36.135Z,9.07
2022-08-02T04:48:05.925Z,10.48
2022-08-02T04:50:35.280Z,11.95
2022-08-02T04:53:02.944Z,10.10
2022-08-02T04:55:30.394Z,6.88
2022-08-02T04:57:59.037Z,5.45
2022-08-02T05:00:29.126Z,5.32
2022-08-02T05:03:01.098Z,5.57
2022-08-02T05:05:28.650Z,5.18
2022-08-02T05:07:56.241Z,4.75
2022-08-02T05:10:24.464Z,3.40
2022-08-02T05:12:52.192Z,3.40
2022-08-02T05:15:19.721Z,3.30
2022-08-02T05:17:48.972Z,3.20
2022-08-02T05:20:38.146Z,2.80
2022-08-02T05:23:05.419Z,2.78
2022-08-02T05:25:34.839Z,3.42
2022-08-02T05:28:02.151Z,3.30
2022-08-02T05:30:29.520Z,3.03
2022-08-02T05:32:56.863Z,3.00
2022-08-02T05:35:29.819Z,3.25
2022-08-02T05:37:57.117Z,2.92
2022-08-02T05:40:26.012Z,2.65
2022-08-02T05:42:55.062Z,2.95
2022-08-02T05:45:23.245Z,3.10
2022-08-02T05:47:51.446Z,2.47
2022-08-02T05:50:20.162Z,2.58
2022-08-02T05:52:59.678Z,2.17
2022-08-02T05:55:34.670Z,1.90
2022-08-02T05:58:30.252Z,2.47
2022-08-02T06:01:05.513Z,2.10
2022-08-02T06:03:57.399Z,2.30
2022-08-02T06:06:27.206Z,2.35
2022-08-02T06:09:10.967Z,2.20
2022-08-02T06:12:01.698Z,2.10
2022-08-02T06:14:34.574Z,2.20
2022-08-02T06:17:09.463Z,2.10
2022-08-02T06:19:51.884Z,2.20
2022-08-02T06:22:37.202Z,1.98
2022-08-02T06:32:16.577Z,2.17
2022-08-02T06:34:44.034Z,2.17
2022-08-02T06:37:42.733Z,1.95
2022-08-02T06:40:40.809Z,2.10
2022-08-02T06:43:55.889Z,1.85
2022-08-02T06:46:57.215Z,1.63
2022-08-02T06:49:10.936Z,1.70
2022-08-02T06:51:38.337Z,1.58
2022-08-02T06:54:08.445Z,1.75
2022-08-02T06:56:35.735Z,1.80
2022-08-02T06:59:05.912Z,1.80
2022-08-02T07:01:39.190Z,1.50
2022-08-02T07:04:12.279Z,2.15
2022-08-02T07:06:39.818Z,2.00
2022-08-02T07:09:22.789Z,1.80
2022-08-02T07:11:50.391Z,1.73
2022-08-02T07:14:20.848Z,1.88
2022-08-02T07:16:48.540Z,1.90
2022-08-02T07:19:16.217Z,1.55
2022-08-02T07:21:59.564Z,1.52
2022-08-02T07:24:30.853Z,2.00
2022-08-02T07:27:11.293Z,2.00
2022-08-02T07:29:46.818Z,2.55
2022-08-02T07:32:24.058Z,1.90
2022-08-02T07:34:55.387Z,2.15
2022-08-02T07:37:52.929Z,2.40
2022-08-02T07:40:20.631Z,2.55
2022-08-02T07:42:57.730Z,2.65
2022-08-02T07:45:27.321Z,2.25
2022-08-02T07:47:56.832Z,2.28
2022-08-02T07:50:28.427Z,2.30
2022-08-02T07:52:57.992Z,2.20
2022-08-02T07:55:35.163Z,1.80
2022-08-02T07:58:11.075Z,2.78
2022-08-02T08:00:43.930Z,2.40
2022-08-02T08:03:12.160Z,2.70
2022-08-02T08:05:40.671Z,2.70
2022-08-02T08:08:17.305Z,1.92
2022-08-02T08:10:46.396Z,1.63
2022-08-02T08:13:17.620Z,2.20
2022-08-02T08:15:51.869Z,2.80
2022-08-02T08:18:22.139Z,2.47
2022-08-02T08:20:50.144Z,1.98
2022-08-02T08:23:17.571Z,2.70
2022-08-02T08:25:45.992Z,2.55
2022-08-02T08:28:13.590Z,2.20
2022-08-02T08:30:45.396Z,2.60
2022-08-02T08:33:13.148Z,3.00
2022-08-02T08:35:40.901Z,2.00
2022-08-02T08:38:08.592Z,2.78
2022-08-02T08:40:37.063Z,2.90
2022-08-02T08:43:06.958Z,2.80
2022-08-02T08:45:34.560Z,2.15
2022-08-02T08:48:25.676Z,2.20
2022-08-02T08:51:15.788Z,2.45
2022-08-02T08:53:52.278Z,2.70
2022-08-02T08:56:20.662Z,2.30
2022-08-02T08:58:48.450Z,3.33
2022-08-02T09:01:17.270Z,2.80
2022-08-02T09:03:45.614Z,2.33
2022-08-02T09:06:12.949Z,3.10
2022-08-02T09:08:40.230Z,3.00
2022-08-02T09:11:25.718Z,2.95
2022-08-02T09:14:34.663Z,2.80
2022-08-02T09:17:12.720Z,2.60
2022-08-02T09:19:45.808Z,2.40
2022-08-02T09:22:15.774Z,2.05
2022-08-02T09:24:49.934Z,2.60
2022-08-02T09:27:23.113Z,2.80
2022-08-02T09:30:13.784Z,3.10
2022-08-02T09:32:47.841Z,2.80
2022-08-02T09:36:06.202Z,3.08
2022-08-02T09:38:26.014Z,2.50
2022-08-02T09:40:53.902Z,3.58
2022-08-02T09:43:21.303Z,3.08
2022-08-02T09:45:48.673Z,2.95
2022-08-02T09:48:15.917Z,3.53
2022-08-02T09:50:46.377Z,2.60
2022-08-02T09:53:14.479Z,2.95
2022-08-02T09:55:42.905Z,2.78
2022-08-02T09:58:40.236Z,2.88
2022-08-02T10:01:11.257Z,2.67
2022-08-02T10:04:21.292Z,2.55
2022-08-02T10:06:54.478Z,2.80
2022-08-02T10:09:23.426Z,2.60
2022-08-02T10:11:52.759Z,2.70
2022-08-02T10:14:21.574Z,2.95
2022-08-02T10:16:48.898Z,2.40
2022-08-02T10:19:16.898Z,2.67
2022-08-02T10:21:58.865Z,2.60
2022-08-02T10:24:31.871Z,2.60
2022-08-02T10:27:01.760Z,2.38
2022-08-02T10:29:44.755Z,2.35
2022-08-02T10:32:38.474Z,2.88
2022-08-02T10:35:20.178Z,2.22
2022-08-02T10:38:01.795Z,2.70
2022-08-02T10:40:54.671Z,2.78
2022-08-02T10:43:37.275Z,2.53
2022-08-02T10:46:37.589Z,2.28
2022-08-02T10:52:02.700Z,2.15
2022-08-02T10:55:01.543Z,2.03
2022-08-02T10:57:40.665Z,1.95
2022-08-02T11:00:27.377Z,1.83
2022-08-02T11:02:55.000Z,1.92
2022-08-02T11:05:43.283Z,1.92
2022-08-02T11:08:24.644Z,1.60
2022-08-02T11:10:52.151Z,1.90
2022-08-02T11:13:20.394Z,1.67
2022-08-02T11:15:57.183Z,1.50
2022-08-02T11:18:50.681Z,1.70
2022-08-02T11:21:37.782Z,1.60
2022-08-02T11:24:39.125Z,2.00
2022-08-02T11:27:21.729Z,1.80
2022-08-02T11:29:50.073Z,1.73
2022-08-02T11:32:30.726Z,2.15
2022-08-02T11:35:10.969Z,1.80
2022-08-02T11:37:45.248Z,1.90
2022-08-02T11:40:19.779Z,1.92
2022-08-02T11:42:50.673Z,1.90
2022-08-02T11:45:29.653Z,1.75
2022-08-02T11:47:57.298Z,2.10
2022-08-02T11:50:29.991Z,2.17
2022-08-02T11:53:01.406Z,2.05
2022-08-02T11:55:32.530Z,1.95
2022-08-02T11:58:05.407Z,1.85
2022-08-02T12:00:34.216Z,2.10
2022-08-02T12:03:02.049Z,2.03
2022-08-02T12:06:02.902Z,1.67
2022-08-02T12:08:22.043Z,1.70
2022-08-02T12:10:51.430Z,2.03
2022-08-02T12:13:18.838Z,1.80
2022-08-02T12:15:47.610Z,1.90
2022-08-02T12:18:38.926Z,1.70
2022-08-02T12:21:27.790Z,2.17
2022-08-02T12:23:58.803Z,1.90
2022-08-02T12:26:31.439Z,1.83
2022-08-02T12:29:04.052Z,1.40
2022-08-02T12:31:55.931Z,1.60
2022-08-02T12:34:30.029Z,1.70
2022-08-02T12:37:09.151Z,1.77
2022-08-02T12:39:46.735Z,1.80
2022-08-02T12:42:16.294Z,1.70
2022-08-02T12:44:59.706Z,2.00
2022-08-02T12:47:35.518Z,2.15
2022-08-02T12:50:26.903Z,1.88
2022-08-02T12:53:17.913Z,1.80
2022-08-02T12:56:01.579Z,1.90
2022-08-02T12:58:51.367Z,2.00
2022-08-02T13:01:28.291Z,1.92
2022-08-02T13:04:09.945Z,1.80
2022-08-02T13:06:44.478Z,1.90
2022-08-02T13:09:17.124Z,1.98
2022-08-02T13:11:45.716Z,2.10
2022-08-02T13:14:15.164Z,2.10
2022-08-02T13:16:45.624Z,1.85
2022-08-02T13:19:15.639Z,2.15
2022-08-02T13:22:01.234Z,2.47
2022-08-02T13:24:40.738Z,2.67
2022-08-02T13:27:20.909Z,2.92
2022-08-02T13:29:51.085Z,2.22
2022-08-02T13:32:21.722Z,2.63
2022-08-02T13:34:50.808Z,2.58
2022-08-02T13:37:18.686Z,2.40
2022-08-02T13:40:05.484Z,2.30
2022-08-02T13:42:34.186Z,2.25
2022-08-02T13:45:12.781Z,2.03
2022-08-02T13:48:03.506Z,2.25
2022-08-02T13:50:32.456Z,2.13
2022-08-02T13:52:59.786Z,1.80
2022-08-02T13:55:27.958Z,1.90
2022-08-02T13:57:55.309Z,2.20
2022-08-02T14:00:34.327Z,1.98
2022-08-02T14:03:06.891Z,1.95
2022-08-02T14:05:47.406Z,2.05
2022-08-02T14:08:22.953Z,1.73
2022-08-02T14:10:51.855Z,2.05
2022-08-02T14:13:20.062Z,2.40
2022-08-02T14:15:48.428Z,2.03
2022-08-02T14:18:16.330Z,2.00
2022-08-02T14:20:45.741Z,2.20
2022-08-02T14:23:13.102Z,2.05
2022-08-02T14:25:41.179Z,2.42
2022-08-02T14:28:08.757Z,2.05
2022-08-02T14:30:36.274Z,1.80
2022-08-02T14:33:04.242Z,1.92
2022-08-02T14:35:32.452Z,2.00
2022-08-02T14:38:01.340Z,2.20
2022-08-02T14:40:31.151Z,2.00
2022-08-02T14:43:08.286Z,2.10
2022-08-02T14:45:40.554Z,2.00
2022-08-02T14:48:12.447Z,2.03
2022-08-02T14:50:42.066Z,2.22
2022-08-02T14:53:12.227Z,2.20
2022-08-02T14:55:43.877Z,2.00
2022-08-02T14:58:12.347Z,1.85
2022-08-02T15:00:41.610Z,2.03
2022-08-02T15:03:11.423Z,2.10
2022-08-02T15:05:40.438Z,1.90
2022-08-02T15:08:08.211Z,2.10
2022-08-02T15:10:35.767Z,2.20
2022-08-02T15:13:03.055Z,2.38
2022-08-02T15:15:30.416Z,2.00
2022-08-02T15:17:57.770Z,2.42
2022-08-02T15:20:34.050Z,2.00
2022-08-02T15:23:03.416Z,2.15
2022-08-02T15:25:32.505Z,2.03
2022-08-02T15:27:59.751Z,1.90
2022-08-02T15:30:27.111Z,2.03
2022-08-02T15:32:56.024Z,2.20
2022-08-02T15:35:26.241Z,2.20
2022-08-02T15:37:54.366Z,2.20
2022-08-02T15:41:24.856Z,2.05
2022-08-02T15:44:00.904Z,2.97
2022-08-02T15:47:50.397Z,2.38
2022-08-02T15:50:22.187Z,14.00
2022-08-02T15:52:49.510Z,17.20
2022-08-02T15:55:20.792Z,15.15
2022-08-02T15:59:05.629Z,10.18
2022-08-02T16:02:48.832Z,3.75
2022-08-02T16:06:31.427Z,5.28
2022-08-02T16:10:14.058Z,5.47
2022-08-02T16:13:57.280Z,4.75
2022-08-02T16:17:53.527Z,1.90
2022-08-02T16:21:40.626Z,2.60
2022-08-02T16:25:24.118Z,2.10
2022-08-02T16:29:06.950Z,1.60
2022-08-02T16:32:50.667Z,2.58
2022-08-02T16:36:36.889Z,1.90
2022-08-02T16:40:22.680Z,1.80
2022-08-02T16:44:09.112Z,2.50
2022-08-02T16:46:38.545Z,1.80
2022-08-02T16:49:06.586Z,1.70
2022-08-02T16:51:54.158Z,1.88
2022-08-02T16:55:38.191Z,1.80
2022-08-02T16:58:11.113Z,2.60
2022-08-02T17:00:46.364Z,1.80
2022-08-02T17:03:19.343Z,2.60
2022-08-02T17:05:56.375Z,1.90
2022-08-02T17:08:32.070Z,1.75
2022-08-02T17:11:03.659Z,1.80
2022-08-02T17:16:26.371Z,1.90
2022-08-02T17:18:55.673Z,2.17
2022-08-02T17:21:23.764Z,1.77
2022-08-02T17:24:08.191Z,1.80
2022-08-02T17:26:38.185Z,1.67
2022-08-02T17:29:16.015Z,1.38
2022-08-02T17:32:04.854Z,1.70
2022-08-02T17:34:37.584Z,1.80
2022-08-02T17:37:06.501Z,2.10
2022-08-02T17:39:43.820Z,2.22
2022-08-02T17:42:29.041Z,2.05
2022-08-02T17:45:06.734Z,2.00
2022-08-02T17:47:42.388Z,1.92
2022-08-02T17:50:12.568Z,1.83
2022-08-02T17:52:51.145Z,2.40
2022-08-02T17:55:21.289Z,2.13
2022-08-02T17:57:57.115Z,1.80
2022-08-02T18:00:37.715Z,1.92
2022-08-02T18:03:09.988Z,1.70
2022-08-02T18:05:41.643Z,1.92
2022-08-02T18:08:24.047Z,2.08
2022-08-02T18:10:58.135Z,2.00
2022-08-02T18:13:26.105Z,2.60
2022-08-02T18:16:00.268Z,2.15
2022-08-02T18:18:30.919Z,2.03
2022-08-02T18:21:15.878Z,2.15
2022-08-02T18:23:58.638Z,2.35
2022-08-02T18:26:28.527Z,2.28
2022-08-02T18:29:01.415Z,1.90
2022-08-02T18:31:29.098Z,2.22
2022-08-02T18:34:08.157Z,2.20
2022-08-02T18:36:36.157Z,2.80
2022-08-02T18:39:16.693Z,2.50
2022-08-02T18:41:44.517Z,2.17
2022-08-02T18:44:16.753Z,2.50
2022-08-02T18:46:49.313Z,2.55
2022-08-02T18:49:17.339Z,2.30
2022-08-02T18:51:45.128Z,2.55
2022-08-02T18:54:12.832Z,2.15
2022-08-02T18:56:47.301Z,2.20
2022-08-02T18:59:15.807Z,2.30
2022-08-02T19:01:50.601Z,2.50
2022-08-02T19:04:27.434Z,2.40
2022-08-02T19:07:05.390Z,2.60
2022-08-02T19:09:36.599Z,2.20
2022-08-02T19:12:12.112Z,2.40
2022-08-02T19:14:40.484Z,2.53
2022-08-02T19:17:53.125Z,2.42
2022-08-02T19:19:56.115Z,2.80
2022-08-02T19:22:29.708Z,2.28
2022-08-02T19:25:01.553Z,2.58
2022-08-02T19:27:32.787Z,2.22
2022-08-02T19:30:07.421Z,2.30
2022-08-02T19:32:59.333Z,2.35
2022-08-02T19:35:34.448Z,2.78
2022-08-02T19:38:14.915Z,2.30
2022-08-02T19:40:42.443Z,2.17
2022-08-02T19:44:26.076Z,2.70
2022-08-02T19:46:00.264Z,2.40
2022-08-02T19:48:28.056Z,2.65
2022-08-02T19:51:00.987Z,2.35
2022-08-02T19:53:46.637Z,2.28
2022-08-02T19:59:13.030Z,2.30
2022-08-02T20:01:48.661Z,2.60
2022-08-02T20:04:23.179Z,2.47
2022-08-02T20:06:51.771Z,2.40
2022-08-02T20:09:33.131Z,2.17
2022-08-02T20:12:01.445Z,2.03
2022-08-02T20:14:33.630Z,2.75
2022-08-02T20:17:11.884Z,2.30
2022-08-02T20:19:42.375Z,2.10
2022-08-02T20:22:14.591Z,2.50
2022-08-02T20:24:44.198Z,2.50
2022-08-02T20:27:16.997Z,2.47
2022-08-02T20:29:51.961Z,2.65
2022-08-02T20:32:23.395Z,2.22
2022-08-02T20:34:52.423Z,2.50
2022-08-02T20:38:00.090Z,2.33
2022-08-02T20:40:17.137Z,2.78
2022-08-02T20:42:47.773Z,2.40
2022-08-02T20:45:19.647Z,2.83
2022-08-02T20:47:51.032Z,2.60
2022-08-02T20:50:40.371Z,3.05
2022-08-02T20:53:24.094Z,2.95
2022-08-02T20:56:00.242Z,2.92
2022-08-02T20:58:31.080Z,2.65
2022-08-02T21:01:01.529Z,2.50
2022-08-02T21:03:32.268Z,2.85
2022-08-02T21:06:10.461Z,2.70
2022-08-02T21:08:42.091Z,2.85
2022-08-02T21:11:14.578Z,2.85
2022-08-02T21:13:47.198Z,2.95
2022-08-02T21:16:30.348Z,2.83
2022-08-02T21:19:00.200Z,2.70
2022-08-02T21:21:29.832Z,2.60
2022-08-02T21:26:48.997Z,2.58
2022-08-02T21:29:19.000Z,2.53
2022-08-02T21:31:46.485Z,2.60
2022-08-02T21:34:22.499Z,2.30
2022-08-02T21:36:57.459Z,2.50
2022-08-02T21:39:26.088Z,2.13
2022-08-02T21:41:53.625Z,2.63
2022-08-02T21:44:24.780Z,2.40
2022-08-02T21:46:55.996Z,2.70
2022-08-02T21:50:08.406Z,2.40
2022-08-02T21:52:14.588Z,2.78
2022-08-02T21:54:46.673Z,2.70
2022-08-02T21:57:16.889Z,2.10
2022-08-02T21:59:46.547Z,2.03
2022-08-02T22:02:18.139Z,2.60
2022-08-02T22:04:47.413Z,2.70
2022-08-02T22:07:23.673Z,2.50
2022-08-02T22:09:53.702Z,2.75
2022-08-02T22:12:26.309Z,2.58
2022-08-02T22:14:55.742Z,2.50
2022-08-02T22:17:53.278Z,2.40
2022-08-02T22:20:21.529Z,2.40
2022-08-02T22:22:53.372Z,2.47
2022-08-02T22:25:36.156Z,2.55
2022-08-02T22:28:38.991Z,2.50
2022-08-02T22:31:04.604Z,2.60
2022-08-02T22:34:01.026Z,2.70
2022-08-02T22:36:43.387Z,2.72
2022-08-02T22:39:18.863Z,2.70
2022-08-02T22:42:06.351Z,2.45
2022-08-02T22:44:35.830Z,2.58
2022-08-02T22:47:14.904Z,3.00
2022-08-02T22:49:54.346Z,2.95
2022-08-02T22:52:23.836Z,3.47
2022-08-02T22:54:51.734Z,3.55
2022-08-02T22:57:30.191Z,3.40
2022-08-02T22:58:50.426Z,1.77
2022-08-02T22:58:54.018Z,2.40
2022-08-02T23:00:09.417Z,3.85
2022-08-02T23:02:37.986Z,3.92
2022-08-02T23:05:06.070Z,3.85
2022-08-02T23:07:36.349Z,3.65
2022-08-02T23:10:07.936Z,3.63
2022-08-02T23:12:35.616Z,3.90
2022-08-02T23:15:06.242Z,4.10
2022-08-02T23:17:52.927Z,3.53
2022-08-02T23:20:21.145Z,3.70
2022-08-02T23:22:48.374Z,3.83
2022-08-02T23:25:15.631Z,3.92
2022-08-02T23:27:50.466Z,3.42
2022-08-02T23:30:19.925Z,4.10
2022-08-02T23:32:47.671Z,3.90
2022-08-02T23:35:16.716Z,3.58
2022-08-02T23:37:59.739Z,3.67
2022-08-02T23:40:40.611Z,3.80
2022-08-02T23:43:14.466Z,3.55
2022-08-02T23:45:46.586Z,3.30
2022-08-02T23:48:16.304Z,3.67
2022-08-02T23:50:46.381Z,3.63
2022-08-02T23:53:13.601Z,3.50
2022-08-02T23:55:40.834Z,3.00
2022-08-02T23:58:08.011Z,3.08
